Saturday, May 26, 2018, 5:09 AM CDT
Back to Local

KARR, Chicago Aurora Municipal

Location: Sugar Grove, IL, United States Lat: 41.767
Local Time: 5:09 AM CDT (10:09 GMT) Lon: -88.467
Time Zone: US/Central Elev: 711 ft

Show me the last for .
Show Decoded

2018-05-26 04:52 METAR KARR 260952Z AUTO 23003KT 10SM FEW120 17/16 A2977 RMK AO2 SLP075 T01720161
                 =
2018-05-26 03:52 METAR KARR 260852Z AUTO 28004KT 10SM BKN110 19/17 A2978 RMK AO2 SLP077 T01890172
                 55003 =
2018-05-26 02:52 METAR KARR 260752Z AUTO 32003KT 9SM FEW090 19/18 A2976 RMK AO2 SLP073 T01890178
                 =
2018-05-26 01:52 METAR KARR 260652Z AUTO 20009KT 10SM CLR 21/18 A2974 RMK AO2 SLP066 T02110183 =
2018-05-26 00:52 METAR KARR 260552Z AUTO 16007KT 9SM SCT110 21/19 A2979 RMK AO2 SLP081 60005
                 T02110194 10261 20211 403170156 58008 =
2018-05-25 23:52 METAR KARR 260452Z AUTO 23006KT 8SM BKN080 OVC095 22/21 A2981 RMK AO2 RAB03E22
                 SLP086 P0005 T02220206 =
2018-05-25 22:52 METAR KARR 260352Z AUTO 21009KT 9SM BKN080 OVC110 23/20 A2982 RMK AO2 RAB33E43
                 SLP091 P0000 T02330200 =
2018-05-25 21:52 METAR KARR 260252Z AUTO 23008KT 10SM BKN110 23/19 A2981 RMK AO2 SLP089 T02330189
                 53009 =
2018-05-25 20:52 METAR KARR 260152Z 00000KT 10SM SCT110 23/19 A2979 RMK AO2 SLP082 T02330189 =
2018-05-25 19:52 METAR KARR 260052Z 25004KT 10SM CLR 24/19 A2978 RMK AO2 SLP081 T02440189 =
2018-05-25 18:52 METAR KARR 252352Z 21008KT 10SM CLR 26/19 A2978 RMK AO2 SLP080 T02560189 10317
                 20256 58007 =
2018-05-25 17:52 METAR KARR 252252Z 25006KT 10SM FEW050 SCT100 26/19 A2978 RMK AO2 SLP082
                 T02560189 =
2018-05-25 16:52 METAR KARR 252152Z 28014KT 10SM CLR 26/19 A2981 RMK AO2 SLP090 T02610189 =
2018-05-25 15:52 METAR KARR 252052Z 22008KT 10SM FEW075 31/15 A2980 RMK AO2 LTG DSNT SW SLP087
                 T03060150 58027 =
2018-05-25 14:52 METAR KARR 251952Z 18009KT 10SM FEW070 31/16 A2984 RMK AO2 SLP098 T03060161 =
2018-05-25 13:52 METAR KARR 251852Z 21010KT 10SM FEW075 30/16 A2986 RMK AO2 SLP106 T03000156 =
2018-05-25 12:52 METAR KARR 251752Z 21008G15KT 170V240 10SM BKN070 30/16 A2989 RMK AO2 SLP115
                 T03000161 10300 20194 58016 =
2018-05-25 11:52 METAR KARR 251652Z 22010G17KT 10SM CLR 29/17 A2992 RMK AO2 SLP125 T02940167 =
2018-05-25 10:52 METAR KARR 251552Z 24009KT 10SM CLR 28/17 A2993 RMK AO2 SLP129 T02830172 =
2018-05-25 09:52 METAR KARR 251452Z 21007KT 10SM CLR 27/17 A2994 RMK AO2 SLP132 T02720172 58007 =
2018-05-25 08:52 METAR KARR 251352Z 22007KT 10SM CLR 25/17 A2996 RMK AO2 SLP139 T02500167 =
2018-05-25 07:52 METAR KARR 251252Z 20006KT 10SM CLR 22/16 A2996 RMK AO2 SLP140 T02220161 =
2018-05-25 06:52 METAR KARR 251152Z 00000KT 9SM CLR 19/15 A2996 RMK AO2 SLP139 T01940150 10194
                 20156 56010 =
2018-05-25 05:52 METAR KARR 251052Z AUTO 00000KT 10SM CLR 17/14 A2996 RMK AO2 SLP142 T01670139 =

Support USWX by starting your Amazon purchase here.